Terminal Aerodrome Forecast
Issued by NWS Wichita, KS

Home | Current Version | Previous Version | Text Only | Print | Product List | Glossary Off
Versions: 1 2 3 4 5 6 7 8 9 10 11 12 13 14 15 16

995
FTUS43 KICT 071140 AAB
TAFICT
TAF AMD
KICT 071140Z 0712/0812 08010KT P6SM OVC070
     FM071800 04012KT P6SM -SN SCT025 OVC045
     FM072100 03012G18KT P6SM SCT025 OVC040
     FM080000 01012KT P6SM BKN060
     FM080300 35010KT P6SM SCT150=

USA.gov is the U.S. government's official web portal to all federal, state and local government web resources and services.